Time;durP1;ratioP1;P1;durP2;ratioP2;P2;SDS_P1;SDS_P2;PMS_P1;PMS_P2;Temp;Humidity;BMP_temperature;BMP_pressure;BME280_temperature;BME280_humidity;BME280_pressure;Samples;Min_cycle;Max_cycle;Signal;HPM_P1;HPM_P2
2022/09/12 00:02:20;;;;;;;17.60;13.83;;;17.20;1.00;;;;;;4975662;28;20943;-59
2022/09/12 00:04:46;;;;;;;17.07;14.70;;;17.20;1.00;;;;;;4993202;28;20186;-60
2022/09/12 00:07:12;;;;;;;17.20;15.50;;;17.10;1.00;;;;;;5000649;28;20951;-59
2022/09/12 00:09:38;;;;;;;17.13;15.13;;;17.20;1.00;;;;;;4992871;28;20264;-59
2022/09/12 00:12:04;;;;;;;17.90;14.80;;;17.30;1.00;;;;;;4992743;28;20174;-60
2022/09/12 00:14:30;;;;;;;15.13;13.70;;;17.30;1.00;;;;;;4992736;28;20194;-59
2022/09/12 00:16:59;;;;;;;15.20;13.47;;;17.30;1.00;;;;;;4993232;28;20437;-58
2022/09/12 00:19:26;;;;;;;20.43;15.67;;;17.30;1.00;;;;;;4993259;28;20801;-60
2022/09/12 00:21:52;;;;;;;20.23;14.67;;;17.40;1.00;;;;;;4993316;28;20550;-59
2022/09/12 00:24:18;;;;;;;20.03;16.07;;;17.40;1.00;;;;;;4993092;28;20427;-59
2022/09/12 00:26:44;;;;;;;18.67;15.77;;;17.40;1.00;;;;;;4992586;28;20449;-60
2022/09/12 00:29:20;;;;;;;15.70;13.90;;;17.30;1.00;;;;;;4992889;28;20671;-59
2022/09/12 00:31:46;;;;;;;17.27;14.80;;;17.40;1.00;;;;;;4992650;28;20209;-58
2022/09/12 00:34:12;;;;;;;16.80;15.00;;;17.30;1.00;;;;;;4992157;28;20441;-59
2022/09/12 00:36:38;;;;;;;16.83;15.03;;;17.20;1.00;;;;;;4992074;28;20412;-58
2022/09/12 00:39:05;;;;;;;18.47;14.90;;;17.30;1.00;;;;;;4992731;28;20448;-58
2022/09/12 00:41:36;;;;;;;18.40;15.87;;;17.20;1.00;;;;;;4992329;28;20473;-59
2022/09/12 00:44:10;;;;;;;18.07;13.27;;;17.30;1.00;;;;;;4992472;28;20725;-59
2022/09/12 00:46:47;;;;;;;16.27;14.67;;;17.30;1.00;;;;;;4992008;28;20953;-59
2022/09/12 00:49:17;;;;;;;17.03;15.10;;;17.20;1.00;;;;;;4991266;28;20472;-60
2022/09/12 00:52:14;;;;;;;17.27;14.57;;;17.20;1.00;;;;;;4992463;28;20789;-60
2022/09/12 00:54:48;;;;;;;16.63;14.90;;;17.10;1.00;;;;;;4986608;28;20432;-59
2022/09/12 00:57:16;;;;;;;18.07;15.93;;;17.00;1.00;;;;;;4992183;28;20448;-59
2022/09/12 01:00:02;;;;;;;18.37;16.17;;;17.10;1.00;;;;;;4992035;28;20884;-59
2022/09/12 01:02:28;;;;;;;19.40;15.90;;;17.00;1.00;;;;;;4991870;28;20453;-58
2022/09/12 01:04:54;;;;;;;18.60;15.90;;;17.00;1.00;;;;;;4991882;28;20963;-58
2022/09/12 01:07:20;;;;;;;20.20;16.30;;;16.90;1.00;;;;;;4991681;28;20261;-59
2022/09/12 01:09:46;;;;;;;20.83;16.90;;;16.90;1.00;;;;;;4999733;28;21789;-60
2022/09/12 01:12:16;;;;;;;22.57;17.67;;;16.80;1.00;;;;;;4974659;28;20637;-58
2022/09/12 01:14:42;;;;;;;18.30;15.47;;;16.70;1.00;;;;;;4991927;28;20527;-59
2022/09/12 01:17:12;;;;;;;21.43;18.37;;;16.60;1.00;;;;;;4991854;28;20494;-58
2022/09/12 01:20:01;;;;;;;18.70;16.53;;;16.70;1.00;;;;;;4991732;28;20198;-58
2022/09/12 01:22:54;;;;;;;19.43;16.90;;;16.60;1.00;;;;;;4991552;28;20449;-59
2022/09/12 01:25:42;;;;;;;20.30;17.93;;;16.60;1.00;;;;;;4989390;28;20938;-59
2022/09/12 01:28:25;;;;;;;19.67;17.13;;;16.60;1.00;;;;;;4991394;28;20536;-59
2022/09/12 01:31:04;;;;;;;21.87;18.60;;;16.60;1.00;;;;;;4991370;28;20450;-59
2022/09/12 01:33:46;;;;;;;20.23;17.80;;;16.50;1.00;;;;;;4991485;28;20950;-59
2022/09/12 01:36:37;;;;;;;19.30;16.40;;;16.50;1.00;;;;;;4990156;28;20446;-59
2022/09/12 01:39:04;;;;;;;21.67;16.60;;;16.40;1.00;;;;;;4991326;28;20461;-58
2022/09/12 01:41:53;;;;;;;16.97;15.17;;;16.60;1.00;;;;;;4995491;28;20475;-58
2022/09/12 01:44:34;;;;;;;19.97;15.77;;;16.60;1.00;;;;;;4978655;28;21021;-59
2022/09/12 01:47:38;;;;;;;19.60;16.10;;;16.70;1.00;;;;;;4991174;28;20418;-58
2022/09/12 01:50:05;;;;;;;18.40;16.50;;;16.70;1.00;;;;;;4941173;28;20494;-59
2022/09/12 01:53:00;;;;;;;21.23;17.47;;;16.70;1.00;;;;;;4991049;28;20989;-58
2022/09/12 01:55:33;;;;;;;17.37;15.53;;;16.80;1.00;;;;;;4990870;28;20446;-58
2022/09/12 01:58:13;;;;;;;22.03;16.83;;;16.70;1.00;;;;;;4990970;28;20445;-59
2022/09/12 02:00:53;;;;;;;18.73;16.73;;;16.70;1.00;;;;;;4990898;28;20448;-58
2022/09/12 02:03:50;;;;;;;19.40;16.47;;;16.70;1.00;;;;;;4990858;28;20817;-59
2022/09/12 02:06:28;;;;;;;18.13;16.27;;;16.70;1.00;;;;;;4990635;28;20430;-59
2022/09/12 02:09:01;;;;;;;18.53;16.60;;;16.80;1.00;;;;;;4990460;28;20765;-59
2022/09/12 02:11:30;;;;;;;21.47;18.00;;;16.70;1.00;;;;;;4991101;28;20487;-60
2022/09/12 02:14:08;;;;;;;18.27;16.40;;;16.70;1.00;;;;;;4990649;28;20444;-59
2022/09/12 02:16:54;;;;;;;20.53;16.50;;;16.70;1.00;;;;;;4990655;28;20535;-58
2022/09/12 02:19:23;;;;;;;19.40;15.57;;;16.70;1.00;;;;;;4995060;28;20448;-58
2022/09/12 02:21:58;;;;;;;19.27;16.53;;;16.60;1.00;;;;;;4990151;28;20952;-59
2022/09/12 02:24:31;;;;;;;18.10;16.20;;;16.70;1.00;;;;;;4977641;28;20499;-59
2022/09/12 02:27:02;;;;;;;18.57;16.60;;;16.70;1.00;;;;;;4990428;28;20451;-59
2022/09/12 02:29:28;;;;;;;18.77;16.40;;;16.40;1.00;;;;;;4990081;28;20547;-59
2022/09/12 02:31:58;;;;;;;17.93;15.20;;;16.70;1.00;;;;;;4990870;28;20568;-59
2022/09/12 02:34:50;;;;;;;20.33;16.90;;;16.80;1.00;;;;;;4990648;28;20170;-59
2022/09/12 02:37:24;;;;;;;19.33;17.17;;;16.70;1.00;;;;;;4990435;28;20838;-59
2022/09/12 02:39:54;;;;;;;17.80;15.80;;;16.70;1.00;;;;;;4990426;28;20570;-59
2022/09/12 02:42:20;;;;;;;18.47;16.57;;;16.70;1.00;;;;;;4987871;28;20480;-59
2022/09/12 02:44:45;;;;;;;20.10;17.70;;;16.70;1.00;;;;;;4990421;28;20556;-59
2022/09/12 02:47:21;;;;;;;19.20;17.10;;;16.60;1.00;;;;;;4990366;28;20608;-59
2022/09/12 02:49:47;;;;;;;19.60;16.70;;;16.70;1.00;;;;;;4990172;28;20224;-58
2022/09/12 02:52:13;;;;;;;18.87;16.83;;;16.60;1.00;;;;;;4990357;28;20943;-59
2022/09/12 02:54:38;;;;;;;17.20;15.40;;;16.60;1.00;;;;;;4990499;28;20956;-59
2022/09/12 02:57:14;;;;;;;19.67;16.60;;;16.50;1.00;;;;;;4990494;28;20210;-59
2022/09/12 02:59:41;;;;;;;19.57;16.47;;;16.50;1.00;;;;;;4989901;28;20186;-59
2022/09/12 03:02:29;;;;;;;18.20;15.83;;;16.50;1.00;;;;;;4990160;28;20456;-59
2022/09/12 03:05:13;;;;;;;18.90;16.43;;;16.60;1.00;;;;;;4987858;28;20412;-59
2022/09/12 03:07:54;;;;;;;19.13;16.30;;;16.60;1.00;;;;;;4989530;28;20456;-59
2022/09/12 03:10:31;;;;;;;25.97;18.10;;;16.70;1.00;;;;;;4989926;28;20470;-58
2022/09/12 03:13:24;;;;;;;20.63;18.50;;;16.70;1.00;;;;;;4989969;28;20502;-59
2022/09/12 03:16:10;;;;;;;19.80;16.90;;;16.70;1.00;;;;;;4992967;28;20441;-58
2022/09/12 03:18:45;;;;;;;24.97;18.87;;;16.70;1.00;;;;;;4993650;28;20415;-59
2022/09/12 03:21:37;;;;;;;19.70;17.60;;;16.60;1.00;;;;;;4993865;28;20524;-59
2022/09/12 03:24:07;;;;;;;19.93;16.77;;;16.60;1.00;;;;;;4976329;28;20424;-57
2022/09/12 03:27:00;;;;;;;20.80;18.60;;;16.60;1.00;;;;;;4993577;28;20463;-59
2022/09/12 03:29:26;;;;;;;21.50;17.73;;;16.60;1.00;;;;;;4992886;28;20484;-58
2022/09/12 03:31:56;;;;;;;19.10;17.00;;;16.60;1.00;;;;;;4993730;28;20445;-58
2022/09/12 03:34:24;;;;;;;21.00;17.80;;;16.60;1.00;;;;;;4993493;28;20880;-58
2022/09/12 03:36:49;;;;;;;20.10;18.03;;;16.60;1.00;;;;;;4992576;28;20516;-58
2022/09/12 03:39:15;;;;;;;21.30;17.80;;;16.70;1.00;;;;;;4993373;28;20877;-59
2022/09/12 03:41:41;;;;;;;24.83;18.73;;;16.80;1.00;;;;;;4993765;28;20230;-59
2022/09/12 03:44:06;;;;;;;21.03;18.90;;;16.70;1.00;;;;;;4993376;28;20432;-57
2022/09/12 03:46:32;;;;;;;23.80;19.07;;;16.70;1.00;;;;;;4993422;28;20248;-60
2022/09/12 03:48:58;;;;;;;20.20;17.53;;;16.70;1.00;;;;;;4992501;28;20198;-59
2022/09/12 03:51:23;;;;;;;22.00;18.10;;;16.70;1.00;;;;;;4992974;28;20739;-59
2022/09/12 03:53:49;;;;;;;22.70;18.67;;;16.80;1.00;;;;;;5000329;28;20201;-58
2022/09/12 03:56:15;;;;;;;24.07;18.77;;;16.70;1.00;;;;;;4993073;28;20182;-59
2022/09/12 03:58:40;;;;;;;22.70;17.80;;;16.40;1.00;;;;;;4992977;28;20194;-59
2022/09/12 04:01:18;;;;;;;20.43;17.83;;;16.70;1.00;;;;;;4993303;28;20656;-59
2022/09/12 04:03:46;;;;;;;18.27;16.07;;;16.70;1.00;;;;;;4993025;28;20186;-59
2022/09/12 04:06:14;;;;;;;19.93;17.33;;;16.70;1.00;;;;;;4993480;28;21147;-60
2022/09/12 04:08:41;;;;;;;21.70;18.20;;;16.70;1.00;;;;;;4992754;28;20436;-60
2022/09/12 04:11:06;;;;;;;22.70;19.20;;;16.60;1.00;;;;;;4975511;28;20971;-59
2022/09/12 04:13:34;;;;;;;25.97;18.67;;;16.60;1.00;;;;;;4992907;28;20436;-58
2022/09/12 04:16:00;;;;;;;19.83;16.63;;;16.70;1.00;;;;;;5004465;28;20190;-58
2022/09/12 04:18:26;;;;;;;23.50;18.27;;;17.00;1.00;;;;;;4992372;28;20823;-59
2022/09/12 04:20:52;;;;;;;23.53;17.33;;;16.60;1.00;;;;;;4991627;28;20494;-58
2022/09/12 04:23:18;;;;;;;24.13;19.00;;;16.70;1.00;;;;;;4992670;28;20930;-58
2022/09/12 04:25:43;;;;;;;23.63;17.97;;;16.60;1.00;;;;;;4992649;28;20194;-59
2022/09/12 04:28:09;;;;;;;23.90;19.00;;;16.60;1.00;;;;;;4993181;28;20218;-59
2022/09/12 04:30:35;;;;;;;19.50;17.13;;;;;;;;;;4992494;28;20210;-59
2022/09/12 04:33:00;;;;;;;21.30;18.87;;;16.70;1.00;;;;;;4975427;28;20197;-59
2022/09/12 04:35:27;;;;;;;24.03;18.97;;;16.70;1.00;;;;;;4992498;28;20445;-59
2022/09/12 04:37:53;;;;;;;22.73;18.60;;;16.70;1.00;;;;;;4992475;28;20182;-59
2022/09/12 04:40:19;;;;;;;22.97;18.00;;;16.60;1.00;;;;;;4992632;28;20449;-59
2022/09/12 04:42:45;;;;;;;22.83;18.53;;;16.60;1.00;;;;;;4992169;28;20886;-59
2022/09/12 04:45:11;;;;;;;23.30;19.13;;;16.60;1.00;;;;;;4992185;28;20927;-58
2022/09/12 04:47:37;;;;;;;26.87;20.47;;;16.60;1.00;;;;;;4991598;28;20644;-58
2022/09/12 04:50:04;;;;;;;21.70;18.13;;;16.50;1.00;;;;;;4992441;28;20471;-59
2022/09/12 04:52:29;;;;;;;22.60;19.07;;;16.60;1.00;;;;;;4992424;28;20207;-59
2022/09/12 04:54:55;;;;;;;23.73;18.53;;;16.50;1.00;;;;;;4992167;28;20628;-59
2022/09/12 04:57:20;;;;;;;22.97;19.23;;;16.50;1.00;;;;;;4992334;28;20186;-58
2022/09/12 04:59:46;;;;;;;27.70;22.00;;;16.50;1.00;;;;;;4974432;28;20192;-59
2022/09/12 05:02:11;;;;;;;24.47;19.93;;;16.60;1.00;;;;;;4974663;28;20182;-59
2022/09/12 05:04:37;;;;;;;21.57;19.27;;;16.60;1.00;;;;;;4992220;28;20197;-59
2022/09/12 05:07:04;;;;;;;24.27;20.23;;;16.60;1.00;;;;;;4991953;28;20178;-59
2022/09/12 05:09:30;;;;;;;23.97;18.70;;;16.70;1.00;;;;;;4991832;28;20730;-59
2022/09/12 05:11:58;;;;;;;24.87;19.40;;;16.70;1.00;;;;;;4974271;28;20511;-58
2022/09/12 05:14:23;;;;;;;22.30;18.50;;;16.80;1.00;;;;;;4991304;28;20538;-58
2022/09/12 05:16:49;;;;;;;22.23;19.33;;;16.80;1.00;;;;;;4991564;28;20532;-59
2022/09/12 05:19:14;;;;;;;23.13;18.53;;;16.90;1.00;;;;;;4991443;28;20241;-60
2022/09/12 05:21:40;;;;;;;27.73;19.93;;;17.00;1.00;;;;;;4991739;28;20183;-59
2022/09/12 05:24:05;;;;;;;21.67;18.90;;;17.00;1.00;;;;;;4991540;28;20198;-59
2022/09/12 05:26:31;;;;;;;22.53;19.40;;;17.00;1.00;;;;;;4991766;28;20189;-59
2022/09/12 05:28:56;;;;;;;23.17;19.03;;;17.10;1.00;;;;;;4991083;28;20229;-58
2022/09/12 05:31:24;;;;;;;21.20;18.30;;;17.00;1.00;;;;;;4991076;28;20186;-59
2022/09/12 05:33:52;;;;;;;19.77;17.67;;;17.00;1.00;;;;;;4991059;28;20187;-58
2022/09/12 05:36:28;;;;;;;23.00;18.07;;;17.00;1.00;;;;;;4990871;28;20426;-58
2022/09/12 05:38:55;;;;;;;28.10;18.40;;;17.00;1.00;;;;;;4990890;28;20814;-59
2022/09/12 05:41:23;;;;;;;25.00;19.13;;;17.00;1.00;;;;;;4990926;28;20445;-58
2022/09/12 05:43:54;;;;;;;20.03;17.77;;;17.00;1.00;;;;;;4991123;28;20441;-59
2022/09/12 05:46:21;;;;;;;29.50;19.90;;;17.10;1.00;;;;;;4989829;28;20453;-59
2022/09/12 05:48:48;;;;;;;25.23;19.63;;;17.10;1.00;;;;;;4990963;28;20445;-59
2022/09/12 05:51:18;;;;;;;22.30;19.40;;;17.10;1.00;;;;;;4990732;28;20531;-59
2022/09/12 05:53:44;;;;;;;22.50;18.70;;;17.30;1.00;;;;;;4991050;28;20454;-59
2022/09/12 05:56:15;;;;;;;24.53;19.40;;;17.40;1.00;;;;;;4990379;28;20449;-59
2022/09/12 05:58:43;;;;;;;24.40;20.03;;;17.50;1.00;;;;;;4991106;28;20415;-59
2022/09/12 06:01:17;;;;;;;23.70;18.37;;;17.40;1.00;;;;;;4990902;28;20942;-59
2022/09/12 06:03:45;;;;;;;24.20;19.30;;;17.40;1.00;;;;;;4991299;28;20940;-59
2022/09/12 06:06:12;;;;;;;20.90;18.03;;;17.40;1.00;;;;;;4990939;28;20412;-59
2022/09/12 06:08:40;;;;;;;21.03;17.83;;;17.50;1.00;;;;;;4991479;28;20449;-59
2022/09/12 06:11:08;;;;;;;20.30;16.90;;;17.50;1.00;;;;;;4975939;28;20477;-59
2022/09/12 06:13:36;;;;;;;20.80;17.63;;;17.60;1.00;;;;;;4991149;28;21073;-59
2022/09/12 06:16:19;;;;;;;20.10;17.90;;;17.70;1.00;;;;;;4990512;28;20459;-58
2022/09/12 06:18:50;;;;;;;18.73;15.60;;;17.90;1.00;;;;;;4991204;28;20941;-60
2022/09/12 06:21:16;;;;;;;20.20;17.90;;;17.80;1.00;;;;;;4990385;28;20803;-59
2022/09/12 06:23:45;;;;;;;21.30;17.93;;;18.00;1.00;;;;;;4990944;28;20453;-58
2022/09/12 06:26:11;;;;;;;22.47;17.10;;;18.00;1.00;;;;;;4990781;28;20452;-59
2022/09/12 06:28:41;;;;;;;21.17;16.93;;;18.20;1.00;;;;;;4990731;28;20921;-58
2022/09/12 06:31:10;;;;;;;20.23;16.30;;;18.20;1.00;;;;;;4990477;28;20512;-59
2022/09/12 06:33:38;;;;;;;19.23;16.73;;;18.30;1.00;;;;;;4990201;28;20441;-58
2022/09/12 06:36:14;;;;;;;20.87;18.67;;;18.40;1.00;;;;;;4990307;28;20419;-58
2022/09/12 06:38:40;;;;;;;23.90;18.33;;;18.40;1.00;;;;;;4972190;28;20460;-60
2022/09/12 06:41:09;;;;;;;21.83;17.40;;;18.40;1.00;;;;;;4990617;28;20473;-58
2022/09/12 06:43:35;;;;;;;19.93;16.77;;;18.50;1.00;;;;;;4988545;28;20465;-58
2022/09/12 06:46:01;;;;;;;20.57;18.30;;;18.50;1.00;;;;;;4990561;28;20445;-59
2022/09/12 06:48:27;;;;;;;22.60;17.10;;;18.40;1.00;;;;;;4993104;28;20209;-59
2022/09/12 06:50:58;;;;;;;22.60;18.77;;;18.40;1.00;;;;;;4994486;28;20443;-60
2022/09/12 06:53:24;;;;;;;19.10;16.30;;;18.50;1.00;;;;;;4976653;28;20456;-59
2022/09/12 06:56:05;;;;;;;20.83;17.30;;;18.40;1.00;;;;;;4994412;28;20897;-59
2022/09/12 06:58:32;;;;;;;25.70;18.87;;;18.60;1.00;;;;;;4997174;28;20891;-59
2022/09/12 07:01:18;;;;;;;20.30;17.20;;;18.80;1.00;;;;;;4994107;28;20912;-59
2022/09/12 07:03:51;;;;;;;22.87;17.67;;;18.70;1.00;;;;;;4992586;28;20452;-58
2022/09/12 07:06:18;;;;;;;22.30;17.27;;;18.70;1.00;;;;;;4993992;28;20441;-58
2022/09/12 07:08:45;;;;;;;20.20;16.83;;;18.50;1.00;;;;;;4992284;28;20451;-58
2022/09/12 07:11:14;;;;;;;18.37;16.00;;;18.70;1.00;;;;;;4993596;28;20472;-58
2022/09/12 07:13:42;;;;;;;21.00;17.80;;;18.90;1.00;;;;;;4994139;28;20434;-60
2022/09/12 07:16:09;;;;;;;22.20;17.23;;;18.90;1.00;;;;;;4976198;28;20529;-58
2022/09/12 07:18:36;;;;;;;19.63;15.43;;;18.90;1.00;;;;;;4994015;28;20446;-58
2022/09/12 07:21:08;;;;;;;17.70;15.73;;;18.80;1.00;;;;;;4993929;28;20511;-59
2022/09/12 07:23:34;;;;;;;19.50;15.90;;;18.80;1.00;;;;;;4993527;28;20533;-59
2022/09/12 07:26:00;;;;;;;18.80;15.87;;;18.80;1.00;;;;;;4993934;28;20533;-58
2022/09/12 07:28:29;;;;;;;20.17;16.47;;;18.90;1.00;;;;;;4993802;28;20613;-58
2022/09/12 07:30:55;;;;;;;20.67;15.93;;;19.00;1.00;;;;;;4993688;28;20494;-61
2022/09/12 07:33:23;;;;;;;17.70;15.80;;;19.00;1.00;;;;;;4993973;28;20513;-59
2022/09/12 07:35:48;;;;;;;18.17;15.10;;;19.00;1.00;;;;;;4976111;28;20965;-59
2022/09/12 07:38:15;;;;;;;18.50;16.50;;;19.00;1.00;;;;;;4993695;28;20457;-58
2022/09/12 07:40:41;;;;;;;17.57;15.67;;;18.90;1.00;;;;;;4993059;28;20234;-59
2022/09/12 07:43:07;;;;;;;18.10;13.67;;;19.00;1.00;;;;;;4995493;28;20518;-58
2022/09/12 07:45:33;;;;;;;16.50;14.80;;;19.10;1.00;;;;;;4993996;28;20978;-58
2022/09/12 07:47:58;;;;;;;16.53;14.93;;;19.10;1.00;;;;;;4992486;28;20197;-58
2022/09/12 07:50:24;;;;;;;17.17;15.37;;;19.10;1.00;;;;;;4992445;28;20214;-59
2022/09/12 07:52:53;;;;;;;16.33;14.13;;;19.20;1.00;;;;;;4992248;28;20194;-59
2022/09/12 07:55:19;;;;;;;19.43;15.93;;;19.40;1.00;;;;;;4992380;28;20244;-59
2022/09/12 07:57:49;;;;;;;15.57;14.00;;;19.50;1.00;;;;;;4991895;28;20416;-58
2022/09/12 08:00:15;;;;;;;14.33;12.90;;;19.50;1.00;;;;;;4992220;28;20606;-59
2022/09/12 08:02:40;;;;;;;14.20;12.63;;;19.30;1.00;;;;;;4992129;28;20829;-58
2022/09/12 08:05:08;;;;;;;16.97;12.80;;;19.30;1.00;;;;;;4991932;28;20495;-59
2022/09/12 08:07:34;;;;;;;13.50;12.10;;;19.40;1.00;;;;;;4991410;28;20209;-57
2022/09/12 08:10:00;;;;;;;13.13;11.83;;;19.80;1.00;;;;;;4974523;28;20487;-60
2022/09/12 08:12:30;;;;;;;12.10;10.80;;;19.90;1.00;;;;;;4992011;28;20537;-59
2022/09/12 08:14:56;;;;;;;12.47;11.27;;;19.90;1.00;;;;;;4991587;28;21769;-58
2022/09/12 08:17:21;;;;;;;13.10;11.90;;;19.80;1.00;;;;;;4991916;28;20560;-58
2022/09/12 08:19:47;;;;;;;12.77;11.67;;;19.70;1.00;;;;;;4991553;28;20186;-58
2022/09/12 08:22:12;;;;;;;13.60;11.87;;;19.80;1.00;;;;;;4991500;28;20210;-58
2022/09/12 08:24:38;;;;;;;11.80;9.93;;;20.00;1.00;;;;;;4991697;28;20798;-58
2022/09/12 08:27:05;;;;;;;12.20;11.00;;;20.20;1.00;;;;;;4991776;28;20477;-59
2022/09/12 08:29:30;;;;;;;12.63;11.30;;;20.30;1.00;;;;;;4991858;28;20213;-58
2022/09/12 08:31:56;;;;;;;14.27;10.13;;;20.50;1.00;;;;;;4991570;28;20595;-59
2022/09/12 08:34:23;;;;;;;11.27;10.07;;;20.40;1.00;;;;;;4973942;28;20629;-59
2022/09/12 08:36:49;;;;;;;10.93;9.93;;;20.40;1.00;;;;;;4990969;28;20254;-59
2022/09/12 08:39:15;;;;;;;9.93;8.93;;;20.30;1.00;;;;;;4991765;28;20445;-59
2022/09/12 08:41:45;;;;;;;12.05;10.85;;;20.20;1.00;;;;;;4948238;28;1253544;-59
2022/09/12 08:44:45;;;;;;;10.30;9.30;;;20.10;1.00;;;;;;4988756;28;20265;-59
2022/09/12 08:47:37;;;;;;;10.83;9.83;;;20.40;1.00;;;;;;4988014;28;20409;-59
2022/09/12 08:50:05;;;;;;;11.90;10.70;;;20.60;1.00;;;;;;4991798;28;20820;-59
2022/09/12 08:52:57;;;;;;;12.53;11.30;;;20.50;1.00;;;;;;4991932;28;20449;-58
2022/09/12 08:55:43;;;;;;;11.17;10.07;;;20.10;1.00;;;;;;4989286;28;20437;-59
2022/09/12 08:58:18;;;;;;;9.40;8.50;;;20.30;1.00;;;;;;4992034;28;20415;-59
2022/09/12 09:01:06;;;;;;;8.60;7.77;;;20.60;1.00;;;;;;4992224;28;20437;-59
2022/09/12 09:03:52;;;;;;;10.17;9.10;;;20.60;1.00;;;;;;4990151;28;20433;-59
2022/09/12 09:06:51;;;;;;;10.60;8.07;;;20.90;1.00;;;;;;4987945;28;21022;-59
2022/09/12 09:09:44;;;;;;;9.70;8.80;;;21.30;1.00;;;;;;4991321;28;20446;-59
2022/09/12 09:12:27;;;;;;;16.93;9.63;;;21.30;1.00;;;;;;4991778;28;20441;-59
2022/09/12 09:15:11;;;;;;;8.10;7.40;;;21.80;1.00;;;;;;4991679;28;20780;-59
2022/09/12 09:17:44;;;;;;;9.00;8.10;;;22.10;1.00;;;;;;4989381;28;20437;-59
2022/09/12 09:20:16;;;;;;;8.57;7.67;;;22.20;1.00;;;;;;4991449;28;20441;-59
2022/09/12 09:22:53;;;;;;;7.90;7.20;;;22.00;1.00;;;;;;4991834;28;20468;-59
2022/09/12 09:25:41;;;;;;;7.10;6.50;;;22.20;1.00;;;;;;4990520;28;20544;-58
2022/09/12 09:28:18;;;;;;;7.13;6.53;;;22.10;1.00;;;;;;4975885;28;20943;-58
2022/09/12 09:30:44;;;;;;;7.87;7.17;;;22.00;1.00;;;;;;4991363;28;20473;-58
2022/09/12 09:33:20;;;;;;;8.03;7.43;;;21.80;1.00;;;;;;4991004;28;20524;-57
2022/09/12 09:36:01;;;;;;;8.43;7.67;;;21.60;1.00;;;;;;4991311;28;20437;-58
2022/09/12 09:38:43;;;;;;;7.80;7.10;;;21.40;1.00;;;;;;4990916;28;20780;-58
2022/09/12 09:41:26;;;;;;;7.37;6.60;;;21.30;1.00;;;;;;4991060;28;20453;-60
2022/09/12 09:43:52;;;;;;;8.00;7.40;;;21.50;1.00;;;;;;4991286;28;20492;-59
2022/09/12 09:46:17;;;;;;;6.53;6.03;;;21.80;1.00;;;;;;4990809;28;21675;-59
2022/09/12 09:48:47;;;;;;;8.00;7.30;;;22.10;1.00;;;;;;4991167;28;20183;-59
2022/09/12 09:51:23;;;;;;;6.07;5.53;;;22.70;1.00;;;;;;4990496;28;20469;-58
2022/09/12 09:54:00;;;;;;;6.87;6.27;;;23.10;1.00;;;;;;4991111;28;20446;-59
2022/09/12 09:56:35;;;;;;;5.97;5.37;;;23.40;1.00;;;;;;4990704;28;20793;-59
2022/09/12 09:59:26;;;;;;;5.87;5.47;;;23.10;1.00;;;;;;4990962;28;20443;-58
2022/09/12 10:01:56;;;;;;;6.17;5.57;;;23.60;1.00;;;;;;4988951;28;20516;-58
2022/09/12 10:04:27;;;;;;;5.90;5.40;;;23.40;1.00;;;;;;4990434;28;20452;-57
2022/09/12 10:06:56;;;;;;;6.23;5.73;;;23.40;1.00;;;;;;4990875;28;20512;-60
2022/09/12 10:09:27;;;;;;;5.07;4.57;;;23.40;1.00;;;;;;4990905;28;20465;-58
2022/09/12 10:11:54;;;;;;;4.77;4.07;;;23.30;1.00;;;;;;4991407;28;20453;-59
2022/09/12 10:14:38;;;;;;;4.30;3.90;;;23.00;1.00;;;;;;4990620;28;20437;-60
2022/09/12 10:17:42;;;;;;;4.17;3.70;;;22.70;1.00;;;;;;4990761;28;20969;-59
2022/09/12 10:20:32;;;;;;;4.60;4.20;;;23.10;1.00;;;;;;4991373;28;20907;-58
2022/09/12 10:23:28;;;;;;;3.67;3.37;;;23.80;1.00;;;;;;4990928;28;20477;-59
2022/09/12 10:25:57;;;;;;;4.53;4.20;;;23.90;1.00;;;;;;4979561;28;20454;-59
2022/09/12 10:28:37;;;;;;;5.40;4.30;;;23.90;1.00;;;;;;4990411;28;20456;-59
2022/09/12 10:31:09;;;;;;;5.13;4.63;;;23.70;1.00;;;;;;4990403;28;20486;-59
2022/09/12 10:33:51;;;;;;;6.20;5.07;;;23.40;1.00;;;;;;4990011;28;20445;-59
2022/09/12 10:36:18;;;;;;;3.97;3.67;;;23.30;1.00;;;;;;4974338;28;20479;-60
2022/09/12 10:38:57;;;;;;;5.10;4.10;;;23.30;1.00;;;;;;4990048;28;20446;-59
2022/09/12 10:41:23;;;;;;;4.23;3.83;;;23.30;1.00;;;;;;4990786;28;20453;-59
2022/09/12 10:43:49;;;;;;;5.00;4.60;;;23.40;1.00;;;;;;4989797;28;20495;-59
2022/09/12 10:46:18;;;;;;;5.40;3.90;;;23.50;1.00;;;;;;4990898;28;20477;-60
2022/09/12 10:48:48;;;;;;;4.80;4.40;;;23.70;1.00;;;;;;4989834;28;20353;-59
2022/09/12 10:51:22;;;;;;;4.00;3.60;;;23.70;1.00;;;;;;4990227;28;21044;-59
2022/09/12 10:54:00;;;;;;;3.80;3.50;;;23.70;1.00;;;;;;4990328;28;20769;-59
2022/09/12 10:56:44;;;;;;;4.33;3.97;;;23.70;1.00;;;;;;4990362;28;20429;-60
2022/09/12 10:59:33;;;;;;;4.83;4.33;;;23.70;1.00;;;;;;4988552;28;20847;-59
2022/09/12 11:02:26;;;;;;;4.33;3.90;;;23.70;1.00;;;;;;4989939;28;20457;-58
2022/09/12 11:05:16;;;;;;;2.93;2.73;;;24.10;1.00;;;;;;4989737;28;20437;-58
2022/09/12 11:08:05;;;;;;;3.80;3.50;;;24.40;1.00;;;;;;4990348;28;20863;-59
2022/09/12 11:10:42;;;;;;;3.57;2.80;;;24.70;1.00;;;;;;4990420;28;20532;-59
2022/09/12 11:13:51;;;;;;;4.20;3.23;;;24.80;1.00;;;;;;4989791;28;20861;-59
2022/09/12 11:16:47;;;;;;;2.53;2.33;;;24.80;1.00;;;;;;4892000;29;20446;-59
2022/09/12 11:19:35;;;;;;;4.03;2.87;;;24.80;1.00;;;;;;4990015;28;20473;-60
2022/09/12 11:22:30;;;;;;;3.30;3.00;;;24.80;1.00;;;;;;4989529;28;20442;-59
2022/09/12 11:25:27;;;;;;;4.07;2.57;;;24.60;1.00;;;;;;4988868;28;20449;-59
2022/09/12 11:28:17;;;;;;;1.93;1.83;;;24.60;1.00;;;;;;4988085;28;20418;-59
2022/09/12 11:31:10;;;;;;;2.10;1.90;;;25.70;1.00;;;;;;4989435;28;20557;-59
2022/09/12 11:33:51;;;;;;;2.57;1.70;;;25.60;1.00;;;;;;4991672;28;20446;-59
2022/09/12 11:36:35;;;;;;;1.97;1.77;;;25.70;1.00;;;;;;4994874;28;20434;-60
2022/09/12 11:39:39;;;;;;;1.80;1.70;;;26.00;1.00;;;;;;4993713;28;20815;-59
2022/09/12 11:42:14;;;;;;;2.83;2.10;;;25.30;1.00;;;;;;4894916;29;20573;-59
2022/09/12 11:44:44;;;;;;;2.30;2.10;;;25.00;1.00;;;;;;4980880;28;20473;-60
2022/09/12 11:47:12;;;;;;;2.27;2.07;;;24.50;1.00;;;;;;4993132;28;20448;-60
2022/09/12 11:49:47;;;;;;;3.47;2.70;;;24.80;1.00;;;;;;4993419;28;20464;-59
2022/09/12 11:52:17;;;;;;;3.40;3.10;;;25.00;1.00;;;;;;4993485;28;20766;-59
2022/09/12 11:55:04;;;;;;;2.97;2.77;;;24.90;1.00;;;;;;4993067;28;20441;-60
2022/09/12 11:57:51;;;;;;;2.80;2.20;;;24.40;1.00;;;;;;4991260;28;20437;-59
2022/09/12 12:00:32;;;;;;;2.83;2.40;;;24.20;1.00;;;;;;4989487;28;20465;-59
2022/09/12 12:03:05;;;;;;;2.67;2.10;;;23.80;1.00;;;;;;4993088;28;20528;-59
2022/09/12 12:05:41;;;;;;;2.50;2.30;;;23.50;1.00;;;;;;4993039;28;20449;-59
2022/09/12 12:08:09;;;;;;;3.27;3.03;;;23.60;1.00;;;;;;4993102;28;20989;-59
2022/09/12 12:10:53;;;;;;;3.17;2.83;;;23.30;1.00;;;;;;4992929;28;20882;-59
2022/09/12 12:13:33;;;;;;;4.03;2.87;;;23.50;1.00;;;;;;4993027;28;20476;-59
2022/09/12 12:16:06;;;;;;;3.80;3.00;;;23.40;1.00;;;;;;4992723;28;20530;-59
2022/09/12 12:18:35;;;;;;;4.17;2.70;;;23.40;1.00;;;;;;4992901;28;20428;-60
2022/09/12 12:21:39;;;;;;;5.03;3.30;;;23.50;1.00;;;;;;4992242;28;20951;-59
2022/09/12 12:24:07;;;;;;;2.43;2.23;;;23.60;1.00;;;;;;4991299;28;20458;-58
2022/09/12 12:27:00;;;;;;;4.43;2.80;;;23.90;1.00;;;;;;4992934;28;20795;-61
2022/09/12 12:29:43;;;;;;;2.93;2.73;;;24.40;1.00;;;;;;4989150;28;20445;-60
2022/09/12 12:32:08;;;;;;;2.37;2.17;;;24.80;1.00;;;;;;4990358;28;20974;-59
2022/09/12 12:34:39;;;;;;;2.47;2.27;;;24.80;1.00;;;;;;4992529;28;20450;-59
2022/09/12 12:37:19;;;;;;;2.30;2.10;;;25.10;1.00;;;;;;4992456;28;20193;-60
2022/09/12 12:39:49;;;;;;;2.67;2.43;;;24.60;1.00;;;;;;4992529;28;20955;-59
2022/09/12 12:42:35;;;;;;;3.20;2.90;;;24.20;1.00;;;;;;4992049;28;20479;-58
2022/09/12 12:45:08;;;;;;;2.60;1.80;;;24.20;1.00;;;;;;4990445;28;20473;-59
2022/09/12 12:47:41;;;;;;;2.90;2.23;;;24.10;1.00;;;;;;4988777;28;20442;-59
2022/09/12 12:50:10;;;;;;;2.47;1.80;;;24.40;1.00;;;;;;4992252;28;20563;-58
2022/09/12 12:53:16;;;;;;;2.67;2.43;;;23.90;1.00;;;;;;4992086;28;20438;-59
2022/09/12 12:55:42;;;;;;;2.30;2.10;;;23.70;1.00;;;;;;4989319;28;20442;-59
2022/09/12 12:58:30;;;;;;;2.53;2.10;;;23.70;1.00;;;;;;4994636;28;20438;-59
2022/09/12 13:01:16;;;;;;;2.60;2.30;;;23.80;1.00;;;;;;4992173;28;20589;-60
2022/09/12 13:04:03;;;;;;;2.90;2.13;;;23.70;1.00;;;;;;4988346;28;20532;-59
2022/09/12 13:06:36;;;;;;;4.57;2.23;;;23.40;1.00;;;;;;4990534;28;20417;-58
2022/09/12 13:09:05;;;;;;;2.40;1.90;;;23.40;1.00;;;;;;4991786;28;20451;-58
2022/09/12 13:11:39;;;;;;;3.10;2.00;;;23.40;1.00;;;;;;4991372;28;20474;-58
2022/09/12 13:14:34;;;;;;;2.30;2.10;;;23.60;1.00;;;;;;4991374;28;20454;-59
2022/09/12 13:17:05;;;;;;;3.00;2.57;;;23.70;1.00;;;;;;4991787;28;20923;-59